Time;durP1;ratioP1;P1;durP2;ratioP2;P2;SDS_P1;SDS_P2;PMS_P1;PMS_P2;Temp;Humidity;BMP_temperature;BMP_pressure;BME280_temperature;BME280_humidity;BME280_pressure;Samples;Min_cycle;Max_cycle;Signal;HPM_P1;HPM_P2
2023/12/19 00:01:17;;;;;;;0.80;0.80;;;11.00;99.90;;;;;;5083160;28;20284;-74
2023/12/19 00:03:44;;;;;;;0.77;0.77;;;11.00;99.90;;;;;;5069468;28;20208;-75
2023/12/19 00:06:13;;;;;;;0.90;0.90;;;11.00;99.90;;;;;;5073852;28;20201;-77
2023/12/19 00:08:40;;;;;;;0.77;0.77;;;11.00;99.90;;;;;;5074310;28;20255;-76
2023/12/19 00:11:07;;;;;;;0.73;0.73;;;11.00;99.90;;;;;;5091359;28;20227;-75
2023/12/19 00:13:36;;;;;;;2.33;0.77;;;11.00;99.90;;;;;;5091022;28;20251;-76
2023/12/19 00:16:04;;;;;;;0.67;0.67;;;11.00;99.90;;;;;;5066356;28;20258;-76
2023/12/19 00:18:31;;;;;;;0.73;0.73;;;11.00;99.90;;;;;;5082691;28;20240;-78
2023/12/19 00:20:58;;;;;;;0.70;0.70;;;11.00;99.90;;;;;;5075998;28;20208;-72
2023/12/19 00:23:30;;;;;;;0.80;0.80;;;11.00;99.90;;;;;;5083004;28;20253;-71
2023/12/19 00:25:58;;;;;;;0.50;0.50;;;11.00;99.90;;;;;;5080393;28;20206;-73
2023/12/19 00:28:27;;;;;;;1.07;0.60;;;11.00;99.90;;;;;;5082844;28;20257;-74
2023/12/19 00:30:54;;;;;;;0.60;0.60;;;11.00;99.90;;;;;;5075976;28;20269;-73
2023/12/19 00:33:22;;;;;;;0.67;0.67;;;11.00;99.90;;;;;;5077164;28;20198;-73
2023/12/19 00:35:49;;;;;;;0.70;0.70;;;11.00;99.90;;;;;;5075169;28;20200;-73
2023/12/19 00:38:16;;;;;;;0.80;0.80;;;11.00;99.90;;;;;;5059073;28;20283;-72
2023/12/19 00:40:45;;;;;;;0.70;0.70;;;10.90;99.90;;;;;;5074275;28;20277;-73
2023/12/19 00:43:12;;;;;;;0.60;0.60;;;10.90;99.90;;;;;;5084258;28;20600;-74
2023/12/19 00:45:39;;;;;;;0.50;0.50;;;11.00;99.90;;;;;;5054725;28;20197;-74
2023/12/19 00:48:07;;;;;;;0.60;0.60;;;11.00;99.90;;;;;;5083108;28;20709;-74
2023/12/19 00:50:34;;;;;;;0.83;0.60;;;11.00;99.90;;;;;;5091459;28;20188;-75
2023/12/19 00:53:01;;;;;;;0.70;0.70;;;11.00;99.90;;;;;;5089025;28;20651;-74
2023/12/19 00:55:28;;;;;;;0.57;0.57;;;11.00;99.90;;;;;;5081281;28;20207;-75
2023/12/19 00:57:56;;;;;;;0.70;0.70;;;11.00;99.90;;;;;;5089825;28;20277;-74
2023/12/19 01:00:24;;;;;;;0.77;0.70;;;11.10;99.90;;;;;;5065601;28;20224;-74
2023/12/19 01:02:51;;;;;;;0.63;0.63;;;11.00;99.90;;;;;;5084704;28;20188;-75
2023/12/19 01:05:18;;;;;;;0.57;0.57;;;11.00;99.90;;;;;;5081582;28;20207;-74
2023/12/19 01:07:45;;;;;;;0.60;0.60;;;11.00;99.90;;;;;;5091184;28;20200;-74
2023/12/19 01:10:12;;;;;;;1.63;0.90;;;11.00;99.90;;;;;;5090882;28;20192;-74
2023/12/19 01:12:39;;;;;;;0.77;0.77;;;11.00;99.90;;;;;;5088001;28;20252;-75
2023/12/19 01:15:09;;;;;;;0.50;0.50;;;10.90;99.90;;;;;;5077344;28;20197;-75
2023/12/19 01:17:36;;;;;;;0.60;0.60;;;10.90;99.90;;;;;;5089000;28;20278;-75
2023/12/19 01:20:03;;;;;;;0.70;0.70;;;10.90;99.90;;;;;;5072001;28;20222;-75
2023/12/19 01:22:30;;;;;;;0.60;0.60;;;10.90;99.90;;;;;;5077897;28;20641;-74
2023/12/19 01:24:57;;;;;;;0.53;0.53;;;10.90;99.90;;;;;;5090992;28;20206;-75
2023/12/19 01:27:24;;;;;;;0.60;0.60;;;10.90;99.90;;;;;;5079084;28;20185;-75
2023/12/19 01:29:51;;;;;;;0.50;0.50;;;10.90;99.90;;;;;;5088571;28;20212;-75
2023/12/19 01:32:19;;;;;;;0.70;0.70;;;10.90;99.90;;;;;;5085978;28;20203;-75
2023/12/19 01:34:47;;;;;;;0.67;0.67;;;10.90;99.90;;;;;;5068228;28;20196;-74
2023/12/19 01:37:14;;;;;;;0.60;0.60;;;10.90;99.90;;;;;;5076214;28;20539;-74
2023/12/19 01:39:41;;;;;;;0.70;0.70;;;10.90;99.90;;;;;;5084614;28;20216;-73
2023/12/19 01:42:08;;;;;;;0.70;0.70;;;10.90;99.90;;;;;;5081044;28;20208;-74
2023/12/19 01:44:35;;;;;;;0.60;0.60;;;10.90;99.90;;;;;;5082595;28;20193;-74
2023/12/19 01:47:02;;;;;;;0.73;0.70;;;11.00;99.90;;;;;;5072414;28;20230;-74
2023/12/19 01:49:31;;;;;;;0.97;0.87;;;11.00;99.90;;;;;;5080759;28;20261;-73
2023/12/19 01:51:59;;;;;;;0.50;0.50;;;10.90;99.90;;;;;;5078096;28;20611;-73
2023/12/19 01:54:26;;;;;;;0.80;0.80;;;10.90;99.90;;;;;;5079747;28;20192;-72
2023/12/19 01:56:53;;;;;;;1.10;0.70;;;11.00;99.90;;;;;;5078204;28;20279;-72
2023/12/19 01:59:20;;;;;;;0.60;0.60;;;10.90;99.90;;;;;;5079084;28;20212;-72
2023/12/19 02:01:48;;;;;;;0.63;0.57;;;10.90;99.90;;;;;;5084150;28;20687;-74
2023/12/19 02:04:15;;;;;;;0.50;0.50;;;10.90;99.90;;;;;;5090199;28;20230;-73
2023/12/19 02:06:44;;;;;;;0.80;0.80;;;10.90;99.90;;;;;;5064956;28;20219;-74
2023/12/19 02:09:11;;;;;;;0.70;0.70;;;10.90;99.90;;;;;;5070285;28;20205;-74
2023/12/19 02:11:38;;;;;;;0.83;0.80;;;10.90;99.90;;;;;;5087712;28;20604;-74
2023/12/19 02:14:05;;;;;;;0.50;0.50;;;10.90;99.90;;;;;;5071729;28;20196;-74
2023/12/19 02:16:35;;;;;;;0.70;0.70;;;11.00;99.90;;;;;;5070671;28;20206;-74
2023/12/19 02:19:03;;;;;;;0.60;0.60;;;11.00;99.90;;;;;;5078923;28;20211;-74
2023/12/19 02:21:31;;;;;;;0.70;0.70;;;11.00;99.90;;;;;;5063048;28;20202;-74
2023/12/19 02:23:59;;;;;;;0.90;0.90;;;10.90;99.90;;;;;;5090197;28;20191;-74
2023/12/19 02:26:27;;;;;;;0.83;0.83;;;10.90;99.90;;;;;;5076170;28;20212;-74
2023/12/19 02:28:54;;;;;;;0.60;0.60;;;10.90;99.90;;;;;;5088104;28;20265;-74
2023/12/19 02:31:21;;;;;;;1.07;0.90;;;10.90;99.90;;;;;;5070705;28;20201;-74
2023/12/19 02:33:49;;;;;;;0.80;0.80;;;11.00;99.90;;;;;;5068277;28;20627;-74
2023/12/19 02:36:16;;;;;;;0.70;0.70;;;10.90;99.90;;;;;;5067965;28;20211;-74
2023/12/19 02:38:43;;;;;;;1.10;1.00;;;11.00;99.90;;;;;;5074386;28;20504;-74
2023/12/19 02:41:12;;;;;;;0.90;0.90;;;11.00;99.90;;;;;;5074077;28;20322;-73
2023/12/19 02:43:39;;;;;;;0.60;0.60;;;11.00;99.90;;;;;;5075314;28;20196;-75
2023/12/19 02:46:06;;;;;;;0.70;0.70;;;11.00;99.90;;;;;;5078248;28;20280;-74
2023/12/19 02:48:34;;;;;;;0.90;0.90;;;10.90;99.90;;;;;;5088496;28;20283;-72
2023/12/19 02:51:01;;;;;;;1.00;1.00;;;10.80;99.90;;;;;;5078601;28;20637;-72
2023/12/19 02:53:29;;;;;;;0.70;0.70;;;10.80;99.90;;;;;;5078544;28;20291;-71
2023/12/19 02:55:56;;;;;;;1.13;1.03;;;10.80;99.90;;;;;;5076216;28;20264;-72
2023/12/19 02:58:25;;;;;;;0.70;0.70;;;10.90;99.90;;;;;;5071003;28;20311;-71
2023/12/19 03:00:55;;;;;;;1.70;1.00;;;10.90;99.90;;;;;;5083078;28;20324;-71
2023/12/19 03:03:22;;;;;;;1.03;1.00;;;10.90;99.90;;;;;;5089779;28;20593;-71
2023/12/19 03:05:49;;;;;;;1.20;1.10;;;10.90;99.90;;;;;;5088976;28;20278;-72
2023/12/19 03:08:16;;;;;;;0.70;0.70;;;10.80;99.90;;;;;;5089023;28;20202;-72
2023/12/19 03:10:43;;;;;;;1.00;1.00;;;10.80;99.90;;;;;;5088776;28;20196;-72
2023/12/19 03:13:10;;;;;;;1.13;1.10;;;10.80;99.90;;;;;;5085830;28;20199;-72
2023/12/19 03:15:38;;;;;;;1.20;1.20;;;10.80;99.90;;;;;;5089194;28;20319;-72
2023/12/19 03:18:05;;;;;;;1.10;1.10;;;10.80;99.90;;;;;;5084356;28;20257;-72
2023/12/19 03:20:32;;;;;;;0.90;0.90;;;10.80;99.90;;;;;;5066451;28;20216;-71
2023/12/19 03:22:59;;;;;;;0.90;0.90;;;10.80;99.90;;;;;;5088920;28;20201;-72
2023/12/19 03:25:26;;;;;;;1.50;1.40;;;10.80;99.90;;;;;;5085699;28;20199;-72
2023/12/19 03:27:53;;;;;;;1.20;1.20;;;10.70;99.90;;;;;;5078892;28;20205;-72
2023/12/19 03:30:20;;;;;;;1.13;1.13;;;10.80;99.90;;;;;;5087368;28;20206;-72
2023/12/19 03:32:49;;;;;;;1.50;1.40;;;10.80;99.90;;;;;;5086447;28;20568;-72
2023/12/19 03:35:16;;;;;;;1.20;1.20;;;10.80;99.90;;;;;;5087965;28;20271;-73
2023/12/19 03:37:43;;;;;;;1.23;1.23;;;10.80;99.90;;;;;;5088556;28;20641;-73
2023/12/19 03:40:10;;;;;;;1.23;1.17;;;10.80;99.90;;;;;;5091814;28;20224;-73
2023/12/19 03:42:37;;;;;;;0.93;0.93;;;10.80;99.90;;;;;;5089171;28;20192;-72
2023/12/19 03:45:05;;;;;;;1.00;1.00;;;10.90;99.90;;;;;;5086814;28;20196;-73
2023/12/19 03:47:32;;;;;;;0.90;0.90;;;10.90;99.90;;;;;;5072729;28;20478;-74
2023/12/19 03:50:01;;;;;;;0.80;0.80;;;10.80;99.90;;;;;;5092623;28;20598;-74
2023/12/19 03:52:28;;;;;;;1.00;1.00;;;10.90;99.90;;;;;;5092546;28;20206;-74
2023/12/19 03:54:55;;;;;;;0.90;0.90;;;10.90;99.90;;;;;;5063686;28;20231;-73
2023/12/19 03:57:26;;;;;;;1.17;1.10;;;10.90;99.90;;;;;;5085137;28;20211;-74
2023/12/19 03:59:53;;;;;;;1.10;1.10;;;10.80;99.90;;;;;;5070710;28;20740;-74
2023/12/19 04:02:20;;;;;;;0.90;0.90;;;10.80;99.90;;;;;;5091160;28;20205;-74
2023/12/19 04:04:47;;;;;;;0.80;0.80;;;10.80;99.90;;;;;;5084049;28;20202;-74
2023/12/19 04:07:16;;;;;;;0.80;0.80;;;10.80;99.90;;;;;;5064379;28;20731;-74
2023/12/19 04:09:43;;;;;;;1.00;1.00;;;10.80;99.90;;;;;;5064104;28;20619;-73
2023/12/19 04:12:10;;;;;;;1.13;1.03;;;10.80;99.90;;;;;;5073495;28;20218;-73
2023/12/19 04:14:37;;;;;;;0.70;0.70;;;10.80;99.90;;;;;;5085100;28;20211;-75
2023/12/19 04:17:04;;;;;;;0.83;0.83;;;10.80;99.90;;;;;;5090589;28;20573;-74
2023/12/19 04:19:31;;;;;;;1.00;1.00;;;10.80;99.90;;;;;;5060652;28;20216;-75
2023/12/19 04:21:59;;;;;;;0.80;0.80;;;10.80;99.90;;;;;;5089167;28;20194;-73
2023/12/19 04:24:28;;;;;;;0.90;0.80;;;10.80;99.90;;;;;;5069597;28;20384;-72
2023/12/19 04:26:55;;;;;;;1.17;0.90;;;10.80;99.90;;;;;;5084554;28;20270;-73
2023/12/19 04:29:22;;;;;;;1.03;1.03;;;10.80;99.90;;;;;;5073796;28;20195;-72
2023/12/19 04:31:49;;;;;;;1.03;1.03;;;10.80;99.90;;;;;;5082583;28;20198;-73
2023/12/19 04:34:16;;;;;;;1.00;1.00;;;10.80;99.90;;;;;;5092243;28;20203;-73
2023/12/19 04:36:43;;;;;;;1.97;1.10;;;10.70;99.90;;;;;;5083936;28;20197;-73
2023/12/19 04:39:10;;;;;;;0.90;0.90;;;10.70;99.90;;;;;;5085876;28;20294;-73
2023/12/19 04:41:39;;;;;;;1.10;1.00;;;10.70;99.90;;;;;;5084930;28;20302;-73
2023/12/19 04:44:06;;;;;;;1.53;0.90;;;10.70;99.90;;;;;;5068696;28;20196;-73
2023/12/19 04:46:33;;;;;;;0.90;0.90;;;10.70;99.90;;;;;;5090970;28;20189;-72
2023/12/19 04:49:03;;;;;;;0.90;0.90;;;10.70;99.90;;;;;;5091334;28;20248;-73
2023/12/19 04:51:30;;;;;;;0.80;0.80;;;10.70;99.90;;;;;;5090793;28;20229;-73
2023/12/19 04:53:57;;;;;;;1.23;1.10;;;10.70;99.90;;;;;;5082591;28;20494;-73
2023/12/19 04:56:24;;;;;;;0.80;0.80;;;10.70;99.90;;;;;;5090670;28;20207;-73
2023/12/19 04:58:52;;;;;;;0.90;0.90;;;10.70;99.90;;;;;;5082156;28;20623;-73
2023/12/19 05:01:19;;;;;;;1.00;1.00;;;10.70;99.90;;;;;;5070822;28;20254;-74
2023/12/19 05:03:47;;;;;;;1.00;1.00;;;10.70;99.90;;;;;;5056557;28;20430;-74
2023/12/19 05:06:17;;;;;;;0.67;0.67;;;10.70;99.90;;;;;;5082940;28;20198;-75
2023/12/19 05:08:44;;;;;;;0.87;0.87;;;10.70;99.90;;;;;;5085224;28;20301;-75
2023/12/19 05:11:12;;;;;;;1.00;1.00;;;10.70;99.90;;;;;;5073747;28;20580;-75
2023/12/19 05:13:39;;;;;;;0.77;0.77;;;10.80;99.90;;;;;;5088982;28;20248;-75
2023/12/19 05:16:14;;;;;;;1.00;0.80;;;10.70;99.90;;;;;;5066820;28;20214;-74
2023/12/19 05:18:41;;;;;;;0.70;0.70;;;10.80;99.90;;;;;;5085265;28;20508;-73
2023/12/19 05:21:08;;;;;;;0.83;0.83;;;10.80;99.90;;;;;;5072783;28;20350;-76
2023/12/19 05:23:36;;;;;;;1.07;1.07;;;10.80;99.90;;;;;;5078450;28;20268;-76
2023/12/19 05:26:03;;;;;;;1.00;1.00;;;10.80;99.90;;;;;;5054367;28;20298;-75
2023/12/19 05:28:30;;;;;;;0.90;0.90;;;10.80;99.90;;;;;;5084785;28;20197;-74
2023/12/19 05:30:58;;;;;;;1.00;1.00;;;10.80;99.90;;;;;;5089604;28;20190;-74
2023/12/19 05:33:31;;;;;;;1.07;0.93;;;10.80;99.90;;;;;;5085335;28;20195;-73
2023/12/19 05:35:58;;;;;;;1.20;1.20;;;10.90;99.90;;;;;;5089739;28;20192;-74
2023/12/19 05:38:25;;;;;;;1.10;1.10;;;10.80;99.90;;;;;;5079215;28;20203;-75
2023/12/19 05:40:56;;;;;;;1.03;0.97;;;10.90;99.90;;;;;;5089912;28;20215;-75
2023/12/19 05:43:24;;;;;;;1.20;1.10;;;10.80;99.90;;;;;;5083030;28;20287;-75
2023/12/19 05:45:51;;;;;;;1.30;1.20;;;10.90;99.90;;;;;;5079728;28;20202;-75
2023/12/19 05:48:20;;;;;;;1.13;1.03;;;10.90;99.90;;;;;;5082919;28;20515;-76
2023/12/19 05:50:49;;;;;;;1.20;1.10;;;10.90;99.90;;;;;;5065439;28;20207;-74
2023/12/19 05:53:20;;;;;;;1.40;1.20;;;10.90;99.90;;;;;;5087224;28;20275;-74
2023/12/19 05:55:47;;;;;;;1.40;1.30;;;10.80;99.90;;;;;;5081211;28;20299;-74
2023/12/19 05:58:19;;;;;;;1.37;1.23;;;10.90;99.90;;;;;;5071500;28;20196;-74
2023/12/19 06:00:48;;;;;;;1.47;1.40;;;10.90;99.90;;;;;;5072996;28;20220;-73
2023/12/19 06:03:20;;;;;;;2.60;1.50;;;10.90;99.90;;;;;;5088461;28;20208;-74
2023/12/19 06:05:48;;;;;;;1.30;1.20;;;10.90;99.90;;;;;;5090572;28;20292;-73
2023/12/19 06:08:17;;;;;;;3.17;1.70;;;10.80;99.90;;;;;;5086214;28;20732;-73
2023/12/19 06:10:44;;;;;;;1.80;1.57;;;10.80;99.90;;;;;;5071937;28;20204;-72
2023/12/19 06:13:12;;;;;;;1.57;1.40;;;10.80;99.90;;;;;;5071440;28;20613;-73
2023/12/19 06:15:39;;;;;;;1.50;1.40;;;10.90;99.90;;;;;;5064356;28;20207;-73
2023/12/19 06:18:06;;;;;;;1.73;1.30;;;10.80;99.90;;;;;;5073558;28;20228;-74
2023/12/19 06:20:36;;;;;;;1.13;1.13;;;10.80;99.90;;;;;;5080306;28;20225;-74
2023/12/19 06:23:05;;;;;;;1.20;1.10;;;10.80;99.90;;;;;;5063883;28;20202;-74
2023/12/19 06:25:32;;;;;;;1.67;1.10;;;10.80;99.90;;;;;;5082180;28;20222;-74
2023/12/19 06:28:02;;;;;;;1.33;1.23;;;10.70;99.90;;;;;;5081443;28;20202;-74
2023/12/19 06:30:32;;;;;;;1.40;1.30;;;10.80;99.90;;;;;;5065438;28;20288;-74
2023/12/19 06:33:00;;;;;;;0.90;0.90;;;10.80;99.90;;;;;;5065628;28;20197;-74
2023/12/19 06:35:28;;;;;;;1.20;1.10;;;10.70;99.90;;;;;;5089911;28;20199;-75
2023/12/19 06:37:55;;;;;;;1.10;1.10;;;10.70;99.90;;;;;;5065030;28;20201;-74
2023/12/19 06:40:24;;;;;;;0.90;0.90;;;10.80;99.90;;;;;;5057355;28;20561;-75
2023/12/19 06:42:51;;;;;;;1.00;1.00;;;10.80;99.90;;;;;;5088913;28;20265;-74
2023/12/19 06:45:18;;;;;;;0.97;0.97;;;10.70;99.90;;;;;;5085861;28;20285;-74
2023/12/19 06:48:05;;;;;;;1.10;1.10;;;10.70;99.90;;;;;;5086932;28;20244;-74
2023/12/19 06:50:34;;;;;;;1.37;1.27;;;10.80;99.90;;;;;;5080904;28;20203;-74
2023/12/19 06:53:02;;;;;;;3.13;1.23;;;10.80;99.90;;;;;;5065091;28;20231;-73
2023/12/19 06:55:30;;;;;;;1.50;1.40;;;10.80;99.90;;;;;;5078671;28;20196;-74
2023/12/19 06:57:58;;;;;;;1.00;1.00;;;10.70;99.90;;;;;;5089240;28;20616;-73
2023/12/19 07:00:28;;;;;;;0.90;0.90;;;10.80;99.90;;;;;;5057142;28;20792;-73
2023/12/19 07:02:55;;;;;;;0.90;0.90;;;10.80;99.90;;;;;;5063107;28;20192;-73
2023/12/19 07:05:22;;;;;;;1.40;1.30;;;10.80;99.90;;;;;;5082196;28;20281;-74
2023/12/19 07:07:51;;;;;;;1.27;1.27;;;10.80;99.90;;;;;;5086001;28;20271;-73
2023/12/19 07:10:19;;;;;;;1.70;1.60;;;10.80;99.90;;;;;;5072583;28;20205;-73
2023/12/19 07:12:58;;;;;;;1.77;1.67;;;10.80;99.90;;;;;;5068936;28;20661;-74
2023/12/19 07:15:25;;;;;;;2.50;1.53;;;10.80;99.90;;;;;;5057776;28;20235;-73
2023/12/19 07:17:52;;;;;;;1.80;1.70;;;10.70;99.90;;;;;;5049110;28;20212;-74
2023/12/19 07:20:19;;;;;;;2.43;1.63;;;10.80;99.90;;;;;;5083726;28;20311;-73
2023/12/19 07:22:46;;;;;;;1.03;1.03;;;10.70;99.90;;;;;;5081087;28;20200;-72
2023/12/19 07:25:14;;;;;;;1.53;1.43;;;10.80;99.90;;;;;;5081811;28;20304;-73
2023/12/19 07:27:41;;;;;;;1.57;1.47;;;10.70;99.90;;;;;;5066256;28;20738;-73
2023/12/19 07:30:13;;;;;;;1.93;1.40;;;10.70;99.90;;;;;;5077946;28;20203;-73
2023/12/19 07:32:42;;;;;;;1.60;1.50;;;10.70;99.90;;;;;;5081350;28;20184;-73
2023/12/19 07:35:13;;;;;;;1.70;1.60;;;10.70;99.90;;;;;;5078637;28;20200;-72
2023/12/19 07:37:40;;;;;;;1.53;1.43;;;10.70;99.90;;;;;;5062633;28;20201;-72
2023/12/19 07:40:12;;;;;;;2.00;1.17;;;10.70;99.90;;;;;;5073362;28;20200;-73
2023/12/19 07:42:41;;;;;;;1.20;1.20;;;10.80;99.90;;;;;;5081233;28;20191;-72
2023/12/19 07:45:12;;;;;;;1.43;1.33;;;10.80;99.90;;;;;;5081265;28;20205;-73
2023/12/19 07:47:40;;;;;;;1.83;1.30;;;10.80;99.90;;;;;;5075826;28;20187;-72
2023/12/19 07:50:10;;;;;;;2.23;1.30;;;10.80;99.90;;;;;;5087542;28;20559;-73
2023/12/19 07:52:37;;;;;;;2.00;1.70;;;10.80;99.90;;;;;;5078234;28;20274;-73
2023/12/19 07:55:09;;;;;;;2.97;1.77;;;10.80;99.90;;;;;;5085875;28;20191;-73
2023/12/19 07:57:40;;;;;;;3.33;2.17;;;10.80;99.90;;;;;;5059543;28;20204;-72
2023/12/19 08:00:11;;;;;;;2.90;1.97;;;10.80;99.90;;;;;;5075371;28;20208;-73
2023/12/19 08:02:43;;;;;;;2.10;1.90;;;10.80;99.90;;;;;;5065488;28;20208;-72
2023/12/19 08:05:12;;;;;;;2.00;1.40;;;10.80;99.90;;;;;;5079411;28;20254;-73
2023/12/19 08:07:39;;;;;;;3.50;1.57;;;10.80;99.90;;;;;;5081298;28;20189;-73
2023/12/19 08:10:07;;;;;;;1.73;1.40;;;10.90;99.90;;;;;;5085543;28;20291;-73
2023/12/19 08:12:34;;;;;;;2.43;1.53;;;10.90;99.90;;;;;;5086214;28;20192;-73
2023/12/19 08:15:05;;;;;;;3.70;2.10;;;10.90;99.90;;;;;;5064568;28;20286;-72
2023/12/19 08:17:34;;;;;;;2.57;1.60;;;10.90;99.90;;;;;;5084479;28;20572;-73
2023/12/19 08:20:03;;;;;;;2.67;2.43;;;10.90;99.90;;;;;;5059192;28;20223;-73
2023/12/19 08:22:30;;;;;;;2.17;1.97;;;10.90;99.90;;;;;;5077709;28;20565;-73
2023/12/19 08:24:59;;;;;;;1.43;1.33;;;10.90;99.90;;;;;;5055263;28;20631;-73
2023/12/19 08:27:28;;;;;;;1.40;1.30;;;10.90;99.90;;;;;;5089833;28;20196;-73
2023/12/19 08:29:57;;;;;;;2.13;1.60;;;10.90;99.90;;;;;;5068289;28;20200;-74
2023/12/19 08:32:24;;;;;;;1.93;1.77;;;10.90;99.90;;;;;;5087776;28;20188;-73
2023/12/19 08:34:53;;;;;;;1.50;1.40;;;11.00;99.90;;;;;;5071587;28;20211;-73
2023/12/19 08:37:22;;;;;;;1.67;1.40;;;11.00;99.90;;;;;;5085928;28;20204;-73
2023/12/19 08:39:54;;;;;;;2.10;1.33;;;11.00;99.90;;;;;;5065205;28;20214;-73
2023/12/19 08:42:21;;;;;;;4.50;1.20;;;11.00;99.90;;;;;;5090868;28;20206;-72
2023/12/19 08:44:52;;;;;;;2.20;1.47;;;10.90;99.90;;;;;;5067911;28;20251;-72
2023/12/19 08:47:21;;;;;;;2.20;1.60;;;11.00;99.90;;;;;;5087559;28;20200;-73
2023/12/19 08:49:52;;;;;;;1.53;1.43;;;11.00;99.90;;;;;;5090194;28;20228;-72
2023/12/19 08:52:21;;;;;;;1.20;1.10;;;11.00;99.90;;;;;;5087858;28;20519;-73
2023/12/19 08:54:48;;;;;;;4.27;1.90;;;11.00;99.90;;;;;;5087690;28;20193;-73
2023/12/19 08:57:15;;;;;;;1.30;1.20;;;11.00;99.90;;;;;;5087727;28;20263;-72
2023/12/19 08:59:42;;;;;;;1.70;1.50;;;11.00;99.90;;;;;;5088355;28;20465;-73
2023/12/19 09:02:10;;;;;;;1.50;1.40;;;11.00;99.90;;;;;;5086478;28;20588;-73
2023/12/19 09:04:43;;;;;;;1.40;1.33;;;11.00;99.90;;;;;;5088257;28;20210;-72
2023/12/19 09:07:10;;;;;;;3.07;1.20;;;11.00;99.90;;;;;;5070836;28;20207;-73
2023/12/19 09:09:39;;;;;;;2.90;1.30;;;11.00;99.90;;;;;;5086260;28;20656;-72
2023/12/19 09:12:06;;;;;;;1.27;1.17;;;11.10;99.90;;;;;;5077915;28;20637;-72
2023/12/19 09:14:34;;;;;;;1.30;1.23;;;11.10;99.90;;;;;;5084133;28;20684;-73
2023/12/19 09:17:04;;;;;;;1.10;1.00;;;11.10;99.90;;;;;;5070324;28;20386;-72
2023/12/19 09:19:34;;;;;;;2.80;1.00;;;11.10;99.90;;;;;;5063938;28;20207;-73
2023/12/19 09:22:02;;;;;;;0.70;0.70;;;11.20;99.90;;;;;;5080938;28;20306;-72
2023/12/19 09:24:32;;;;;;;1.00;1.00;;;11.20;99.90;;;;;;5087396;28;20287;-73
2023/12/19 09:27:00;;;;;;;1.10;1.00;;;11.20;99.90;;;;;;5070053;28;20269;-73
2023/12/19 09:29:27;;;;;;;0.90;0.90;;;11.20;99.90;;;;;;5082461;28;20198;-73
2023/12/19 09:31:54;;;;;;;0.80;0.80;;;11.30;99.90;;;;;;5058642;28;20204;-72
2023/12/19 09:34:22;;;;;;;0.87;0.87;;;11.20;99.90;;;;;;5070301;28;20199;-73
2023/12/19 09:36:49;;;;;;;5.03;1.03;;;11.20;99.90;;;;;;5079783;28;20638;-73
2023/12/19 09:39:16;;;;;;;0.87;0.87;;;11.30;99.90;;;;;;5084925;28;20193;-73
2023/12/19 09:41:45;;;;;;;1.40;1.30;;;11.30;99.90;;;;;;5085510;28;20316;-73
2023/12/19 09:44:13;;;;;;;1.23;1.13;;;11.30;99.90;;;;;;5069623;28;20185;-75
2023/12/19 09:46:42;;;;;;;1.07;1.03;;;11.30;99.90;;;;;;5074601;28;20187;-76
2023/12/19 09:49:10;;;;;;;1.17;1.07;;;11.30;99.90;;;;;;5081396;28;20224;-75
2023/12/19 09:51:43;;;;;;;1.20;1.10;;;11.30;99.90;;;;;;5086438;28;20243;-76
2023/12/19 09:54:10;;;;;;;1.10;1.00;;;11.20;99.90;;;;;;5086840;28;20598;-76
2023/12/19 09:56:37;;;;;;;1.20;1.10;;;11.30;99.90;;;;;;5067810;28;20448;-75
2023/12/19 09:59:06;;;;;;;0.90;0.90;;;11.20;99.90;;;;;;5080356;28;20288;-75
2023/12/19 10:01:37;;;;;;;1.20;1.10;;;11.30;99.90;;;;;;5072757;28;20201;-75
2023/12/19 10:04:14;;;;;;;1.20;1.10;;;11.30;99.90;;;;;;5088913;28;20212;-76
2023/12/19 10:06:43;;;;;;;1.47;1.30;;;11.20;99.90;;;;;;5080110;28;20284;-76
2023/12/19 10:09:15;;;;;;;1.37;1.10;;;11.20;99.90;;;;;;5087800;28;20284;-77
2023/12/19 10:11:43;;;;;;;1.50;1.40;;;11.20;99.90;;;;;;5082031;28;20365;-78
2023/12/19 10:14:14;;;;;;;1.23;1.10;;;11.30;99.90;;;;;;5083767;28;20191;-76
2023/12/19 10:16:44;;;;;;;0.90;0.90;;;11.30;99.90;;;;;;5086353;28;20608;-78
2023/12/19 10:19:13;;;;;;;1.50;1.10;;;11.30;99.90;;;;;;5064497;28;20197;-76
2023/12/19 10:21:41;;;;;;;2.03;1.50;;;11.30;99.90;;;;;;5087541;28;20208;-75
2023/12/19 10:24:09;;;;;;;1.43;1.33;;;11.30;99.90;;;;;;5079479;28;20664;-76
2023/12/19 10:26:36;;;;;;;1.50;1.40;;;11.30;99.90;;;;;;5068282;28;20289;-76
2023/12/19 10:29:04;;;;;;;1.33;1.33;;;11.30;99.90;;;;;;5074584;28;20205;-76
2023/12/19 10:31:31;;;;;;;3.43;1.47;;;11.30;99.90;;;;;;5076678;28;20193;-75
2023/12/19 10:34:01;;;;;;;1.00;1.00;;;11.30;99.90;;;;;;5075639;28;20278;-76
2023/12/19 10:36:29;;;;;;;1.10;1.10;;;11.30;99.90;;;;;;5068984;28;20201;-75
2023/12/19 10:38:58;;;;;;;1.10;1.10;;;11.40;99.90;;;;;;5088268;28;20201;-76
2023/12/19 10:41:27;;;;;;;1.30;1.20;;;11.40;99.90;;;;;;5086238;28;20559;-77
2023/12/19 10:43:56;;;;;;;1.63;1.40;;;11.40;99.90;;;;;;5087759;28;20200;-77
2023/12/19 10:46:25;;;;;;;1.40;1.30;;;11.40;99.90;;;;;;5082454;28;20640;-76
2023/12/19 10:48:54;;;;;;;1.30;1.20;;;11.40;99.90;;;;;;5058486;28;20312;-76
2023/12/19 10:51:32;;;;;;;1.50;1.40;;;11.40;99.90;;;;;;5065249;28;20265;-76
2023/12/19 10:54:08;;;;;;;2.07;1.40;;;11.40;99.90;;;;;;5077524;28;20637;-76
2023/12/19 10:56:49;;;;;;;1.30;1.20;;;11.40;99.90;;;;;;5061873;28;20206;-76
2023/12/19 10:59:25;;;;;;;1.50;1.40;;;11.50;99.90;;;;;;5079429;28;20234;-76
2023/12/19 11:01:54;;;;;;;1.37;1.27;;;11.50;99.90;;;;;;5084495;28;20239;-76
2023/12/19 11:04:23;;;;;;;1.47;1.37;;;11.50;99.90;;;;;;5076603;28;20282;-76
2023/12/19 11:07:00;;;;;;;2.37;1.50;;;11.50;99.90;;;;;;5084130;28;20203;-77
2023/12/19 11:09:34;;;;;;;1.60;1.50;;;11.50;99.90;;;;;;5068742;28;20211;-76
2023/12/19 11:12:02;;;;;;;1.93;1.40;;;11.50;99.90;;;;;;5066818;28;20283;-76
2023/12/19 11:14:29;;;;;;;1.87;1.50;;;11.50;99.90;;;;;;5078069;28;20605;-76
2023/12/19 11:17:01;;;;;;;1.13;1.13;;;11.50;99.90;;;;;;5084410;28;20336;-76
2023/12/19 11:19:33;;;;;;;1.50;1.40;;;10.70;99.90;;;;;;5086791;28;20200;-77
2023/12/19 11:22:09;;;;;;;1.47;1.37;;;11.50;99.90;;;;;;5074892;28;20278;-77
2023/12/19 11:24:43;;;;;;;1.73;1.53;;;11.50;99.90;;;;;;5085953;28;20191;-76
2023/12/19 11:27:18;;;;;;;1.03;0.93;;;11.50;99.90;;;;;;5086753;28;20192;-76
2023/12/19 11:29:47;;;;;;;1.50;1.40;;;11.60;99.90;;;;;;5061147;28;20212;-77
2023/12/19 11:32:40;;;;;;;1.00;1.00;;;11.60;99.90;;;;;;5054784;28;20200;-77
2023/12/19 11:35:10;;;;;;;1.40;1.30;;;11.60;99.90;;;;;;5076690;28;20613;-77
2023/12/19 11:37:39;;;;;;;1.50;1.33;;;11.60;99.90;;;;;;5082821;28;20249;-76
2023/12/19 11:40:08;;;;;;;2.23;1.37;;;11.60;99.90;;;;;;5079704;28;20283;-78
2023/12/19 11:42:45;;;;;;;1.60;1.50;;;11.60;99.90;;;;;;5082641;28;20575;-77
2023/12/19 11:45:41;;;;;;;1.17;1.07;;;11.60;99.90;;;;;;5068058;28;20284;-77
2023/12/19 11:48:37;;;;;;;1.47;1.37;;;11.60;99.90;;;;;;5055345;28;20240;-77
2023/12/19 11:51:07;;;;;;;1.30;1.20;;;11.60;99.90;;;;;;5081533;28;20572;-77
2023/12/19 11:53:36;;;;;;;1.00;1.00;;;11.70;99.90;;;;;;5059711;28;20212;-76
2023/12/19 11:56:08;;;;;;;1.93;1.20;;;11.70;99.90;;;;;;5063993;28;20192;-77
2023/12/19 11:58:35;;;;;;;0.90;0.90;;;11.60;99.90;;;;;;5081140;28;20203;-76
2023/12/19 12:01:04;;;;;;;1.30;1.20;;;11.60;99.90;;;;;;5086598;28;20258;-76
2023/12/19 12:03:31;;;;;;;1.17;1.07;;;11.60;99.90;;;;;;5083230;28;20232;-77
2023/12/19 12:06:00;;;;;;;1.23;1.13;;;11.60;99.90;;;;;;5069153;28;20207;-77
2023/12/19 12:08:27;;;;;;;1.40;1.30;;;11.60;99.90;;;;;;5081209;28;20564;-77
2023/12/19 12:11:05;;;;;;;1.37;1.20;;;11.70;99.90;;;;;;5065618;28;20643;-77
2023/12/19 12:13:33;;;;;;;3.13;1.40;;;11.60;99.90;;;;;;5065163;28;20196;-76
2023/12/19 12:16:05;;;;;;;2.87;1.40;;;11.70;99.90;;;;;;5063177;28;20203;-77
2023/12/19 12:18:32;;;;;;;2.40;1.30;;;11.60;99.90;;;;;;5085608;28;20200;-78
2023/12/19 12:21:08;;;;;;;1.43;1.30;;;11.70;99.90;;;;;;5081894;28;20294;-76
2023/12/19 12:23:35;;;;;;;3.43;1.80;;;11.60;99.90;;;;;;5088730;28;20203;-77
2023/12/19 12:26:08;;;;;;;1.40;1.30;;;11.60;99.90;;;;;;5082848;28;20710;-77
2023/12/19 12:28:36;;;;;;;1.40;1.30;;;11.60;99.90;;;;;;5079255;28;20193;-76
2023/12/19 12:31:05;;;;;;;1.63;1.47;;;11.60;99.90;;;;;;5053708;28;20255;-76
2023/12/19 12:33:36;;;;;;;1.87;1.40;;;11.60;99.90;;;;;;5065213;28;21283;-76
2023/12/19 12:36:10;;;;;;;2.03;1.50;;;11.60;99.90;;;;;;5081053;28;20199;-77
2023/12/19 12:38:38;;;;;;;1.40;1.30;;;11.60;99.90;;;;;;5071593;28;20200;-76
2023/12/19 12:41:07;;;;;;;1.30;1.20;;;11.60;99.90;;;;;;5077363;28;20200;-76
2023/12/19 12:43:37;;;;;;;1.50;1.40;;;11.60;99.90;;;;;;5066470;28;20215;-77
2023/12/19 12:46:09;;;;;;;1.70;1.60;;;11.60;99.90;;;;;;5084457;28;20283;-76
2023/12/19 12:48:38;;;;;;;1.47;1.37;;;11.60;99.90;;;;;;5075945;28;20252;-76
2023/12/19 12:51:06;;;;;;;1.37;1.27;;;11.60;99.90;;;;;;5071730;28;20212;-77
2023/12/19 12:53:34;;;;;;;1.80;1.50;;;11.60;99.90;;;;;;5064916;28;20233;-77
2023/12/19 12:56:13;;;;;;;3.50;1.97;;;11.60;99.90;;;;;;5079346;28;20189;-77